Time;durP1;ratioP1;P1;durP2;ratioP2;P2;SDS_P1;SDS_P2;PMS_P1;PMS_P2;Temp;Humidity;BMP_temperature;BMP_pressure;BME280_temperature;BME280_humidity;BME280_pressure;Samples;Min_cycle;Max_cycle;Signal;HPM_P1;HPM_P2
2024/03/09 00:02:05;;;;;;;27.15;14.13;;;;;;;6.86;100.00;100297.78;6250156;28;20506;-74
2024/03/09 00:05:08;;;;;;;29.27;13.95;;;;;;;6.84;100.00;100286.63;6250152;28;20088;-74
2024/03/09 00:08:11;;;;;;;29.60;13.65;;;;;;;6.82;100.00;100285.84;6249114;28;20083;-74
2024/03/09 00:11:15;;;;;;;31.55;15.27;;;;;;;6.75;100.00;100281.81;6249977;28;20469;-74
2024/03/09 00:14:15;;;;;;;36.78;15.63;;;;;;;6.76;100.00;100282.66;6250215;28;20045;-67
2024/03/09 00:17:16;;;;;;;30.13;13.57;;;;;;;6.77;100.00;100285.19;6248301;28;20134;-73
2024/03/09 00:20:23;;;;;;;29.08;13.45;;;;;;;6.76;100.00;100285.25;6249732;28;20073;-67
2024/03/09 00:23:26;;;;;;;33.92;13.90;;;;;;;6.81;100.00;100289.34;6249895;28;20049;-74
2024/03/09 00:26:28;;;;;;;31.60;14.48;;;;;;;6.78;100.00;100284.28;6249563;28;20081;-68
2024/03/09 00:29:29;;;;;;;34.95;15.13;;;;;;;6.76;100.00;100273.13;6249681;28;20050;-74
2024/03/09 00:32:30;;;;;;;33.15;14.98;;;;;;;6.75;100.00;100278.38;6249583;28;20053;-67
2024/03/09 00:35:34;;;;;;;26.83;14.63;;;;;;;6.73;100.00;100281.03;6249459;28;20041;-68
2024/03/09 00:38:37;;;;;;;33.45;15.32;;;;;;;6.68;100.00;100272.59;6248036;28;20493;-67
2024/03/09 00:41:42;;;;;;;29.90;15.35;;;;;;;6.69;100.00;100276.88;6249476;28;20054;-74
2024/03/09 00:44:43;;;;;;;27.70;13.95;;;;;;;6.75;100.00;100278.38;6248030;28;20157;-69
2024/03/09 00:47:47;;;;;;;34.00;16.48;;;;;;;6.72;100.00;100275.94;6249313;28;20456;-74
2024/03/09 00:50:51;;;;;;;34.22;16.23;;;;;;;6.79;100.00;100274.75;6247822;28;20057;-74
2024/03/09 00:53:52;;;;;;;35.92;15.63;;;;;;;6.79;100.00;100273.00;6249252;28;20200;-67
2024/03/09 00:56:53;;;;;;;28.52;15.93;;;;;;;6.76;100.00;100264.50;6248720;28;20129;-74
2024/03/09 00:59:54;;;;;;;37.55;15.50;;;;;;;6.81;100.00;100270.34;6247708;28;20421;-68
2024/03/09 01:02:56;;;;;;;34.50;16.02;;;;;;;6.78;100.00;100268.72;6247565;28;20076;-74
2024/03/09 01:05:57;;;;;;;;;;;;;;;6.84;100.00;100272.81;6249609;28;20123;-74
2024/03/09 01:08:58;;;;;;;36.65;17.70;;;;;;;6.79;100.00;100259.19;6248775;28;19921;-67
2024/03/09 01:11:59;;;;;;;39.92;18.02;;;;;;;6.78;100.00;100260.94;6248571;28;20060;-68
2024/03/09 01:15:09;;;;;;;32.55;16.00;;;;;;;6.79;100.00;100260.03;6248832;28;20049;-68
2024/03/09 01:18:10;;;;;;;33.08;15.10;;;;;;;6.78;100.00;100252.34;6248406;28;20072;-67
2024/03/09 01:21:11;;;;;;;34.95;16.25;;;;;;;6.76;100.00;100254.16;6247154;28;20049;-67
2024/03/09 01:24:15;;;;;;;30.52;15.73;;;;;;;6.77;100.00;100253.22;6248335;28;20502;-74
2024/03/09 01:27:16;;;;;;;29.63;15.48;;;;;;;6.76;100.00;100252.38;6247226;28;20559;-67
2024/03/09 01:30:17;;;;;;;31.92;15.18;;;;;;;6.73;100.00;100243.88;6246058;28;20049;-68
2024/03/09 01:33:20;;;;;;;29.85;14.10;;;;;;;6.71;100.00;100248.28;6247103;28;20140;-69
2024/03/09 01:36:24;;;;;;;29.02;14.55;;;;;;;6.62;100.00;100244.34;6247998;28;20444;-68
2024/03/09 01:39:25;;;;;;;33.15;15.30;;;;;;;6.63;100.00;100241.69;6247909;28;20107;-68
2024/03/09 01:42:26;;;;;;;30.60;15.05;;;;;;;6.61;100.00;100240.03;6246698;28;20053;-75
2024/03/09 01:45:28;;;;;;;29.55;14.23;;;;;;;6.60;100.00;100244.41;6247696;28;20517;-75
2024/03/09 01:48:31;;;;;;;34.78;14.00;;;;;;;6.59;100.00;100236.66;6246543;28;20192;-75
2024/03/09 01:51:34;;;;;;;28.40;13.95;;;;;;;6.57;100.00;100236.75;6247562;28;20053;-75
2024/03/09 01:54:37;;;;;;;;;;;;;;;6.56;100.00;100232.47;6246754;28;20539;-75
2024/03/09 01:57:38;;;;;;;28.67;14.18;;;;;;;6.58;100.00;100237.59;6247465;28;20333;-68
2024/03/09 02:00:41;;;;;;;36.08;16.38;;;;;;;6.56;100.00;100229.88;6246444;28;20049;-69
2024/03/09 02:03:45;;;;;;;33.42;14.75;;;;;;;6.60;100.00;100241.81;6247453;28;20053;-75
2024/03/09 02:06:46;;;;;;;30.00;14.65;;;;;;;6.60;100.00;100228.00;6246320;28;20095;-68
2024/03/09 02:09:50;;;;;;;36.20;15.27;;;;;;;6.61;100.00;100229.66;6246131;28;20057;-74
2024/03/09 02:12:52;;;;;;;29.60;15.50;;;;;;;6.68;100.00;100235.47;6247182;28;20804;-69
2024/03/09 02:15:53;;;;;;;31.73;16.38;;;;;;;6.65;100.00;100234.69;6246152;28;20049;-75
2024/03/09 02:18:55;;;;;;;33.15;16.38;;;;;;;6.61;100.00;100230.53;6247094;28;20053;-75
2024/03/09 02:21:56;;;;;;;40.67;17.77;;;;;;;6.59;100.00;100234.94;6246046;28;20049;-68
2024/03/09 02:24:58;;;;;;;33.25;17.35;;;;;;;6.51;100.00;100234.41;6245795;28;20049;-69
2024/03/09 02:27:59;;;;;;;37.38;15.95;;;;;;;6.55;100.00;100240.34;6247137;28;20049;-69
2024/03/09 02:30:59;;;;;;;30.80;16.30;;;;;;;6.54;100.00;100239.47;6245679;28;20060;-68
2024/03/09 02:34:01;;;;;;;38.17;17.65;;;;;;;6.54;100.00;100228.25;6247038;28;20077;-68
2024/03/09 02:37:04;;;;;;;32.05;16.67;;;;;;;6.54;100.00;100229.09;6246804;28;20103;-75
2024/03/09 02:40:07;;;;;;;33.90;16.50;;;;;;;6.54;100.00;100223.06;6246531;28;20072;-75
2024/03/09 02:43:11;;;;;;;;;;;;;;;6.55;100.00;100232.56;6246166;28;20046;-69
2024/03/09 02:46:15;;;;;;;28.83;14.70;;;;;;;6.56;100.00;100226.44;6246967;28;20032;-69
2024/03/09 02:49:16;;;;;;;33.88;16.38;;;;;;;6.58;100.00;100227.22;6246743;28;20053;-69
2024/03/09 02:52:20;;;;;;;32.38;15.35;;;;;;;6.59;100.00;100227.16;6246504;28;20056;-74
2024/03/09 02:55:23;;;;;;;34.85;16.85;;;;;;;6.53;100.00;100232.59;6246639;28;20077;-73
2024/03/09 02:58:24;;;;;;;39.33;17.15;;;;;;;6.50;100.00;100224.94;6246469;28;20051;-74
2024/03/09 03:01:26;;;;;;;37.55;16.23;;;;;;;6.50;100.00;100227.53;6245279;28;20045;-75
2024/03/09 03:04:29;;;;;;;37.08;15.93;;;;;;;6.54;100.00;100225.66;6245280;28;20060;-74
2024/03/09 03:07:30;;;;;;;34.10;16.20;;;;;;;6.54;100.00;100215.28;6246408;28;20049;-67
2024/03/09 03:10:31;;;;;;;34.15;16.95;;;;;;;6.52;100.00;100217.09;6245130;28;20536;-68
2024/03/09 03:13:34;;;;;;;42.08;18.40;;;;;;;6.54;100.00;100217.88;6245184;28;20513;-68
2024/03/09 03:16:37;;;;;;;33.83;15.43;;;;;;;6.51;100.00;100211.09;6245173;28;20057;-68
2024/03/09 03:19:38;;;;;;;31.92;15.85;;;;;;;6.47;100.00;100212.13;6246628;28;20054;-75
2024/03/09 03:22:40;;;;;;;40.65;17.85;;;;;;;6.42;100.00;100207.13;6246407;28;20072;-74
2024/03/09 03:25:41;;;;;;;39.90;15.98;;;;;;;6.44;100.00;100209.66;6244961;28;20489;-67
2024/03/09 03:28:44;;;;;;;37.25;16.80;;;;;;;6.41;100.00;100214.97;6245288;28;20733;-68
2024/03/09 03:31:45;;;;;;;34.05;16.85;;;;;;;6.40;100.00;100208.09;6246111;28;20096;-74
2024/03/09 03:34:46;;;;;;;35.28;16.00;;;;;;;6.34;100.00;100206.59;6246322;28;20490;-74
2024/03/09 03:37:48;;;;;;;34.70;16.02;;;;;;;6.32;100.00;100212.75;6244908;28;20692;-68
2024/03/09 03:40:49;;;;;;;38.03;15.93;;;;;;;6.35;100.00;100210.88;6246005;28;20053;-74
2024/03/09 03:43:50;;;;;;;34.45;17.17;;;;;;;6.35;100.00;100207.44;6246137;28;20073;-73
2024/03/09 03:46:51;;;;;;;32.75;15.57;;;;;;;6.36;100.00;100209.97;6244757;28;20517;-68
2024/03/09 03:49:52;;;;;;;36.63;16.33;;;;;;;6.35;100.00;100202.25;6245988;28;20148;-75
2024/03/09 03:52:53;;;;;;;30.52;15.52;;;;;;;6.33;100.00;100214.44;6246593;28;20408;-75
2024/03/09 03:55:55;;;;;;;35.83;16.85;;;;;;;6.36;100.00;100215.16;6249128;28;20581;-75
2024/03/09 03:58:58;;;;;;;31.17;15.73;;;;;;;6.32;100.00;100203.25;6249134;28;20053;-75
2024/03/09 04:02:00;;;;;;;35.38;15.55;;;;;;;6.37;100.00;100203.88;6250321;28;20056;-74
2024/03/09 04:05:02;;;;;;;32.75;15.60;;;;;;;6.36;100.00;100204.78;6250120;28;20050;-68
2024/03/09 04:08:03;;;;;;;37.20;17.90;;;;;;;6.37;100.00;100209.06;6248872;28;20545;-68
2024/03/09 04:11:06;;;;;;;39.30;17.15;;;;;;;6.39;100.00;100209.84;6248797;28;20409;-68
2024/03/09 04:14:06;;;;;;;;;;;;;;;6.37;100.00;100211.66;6249297;28;20456;-69
2024/03/09 04:17:07;;;;;;;34.47;15.82;;;;;;;6.33;100.00;100209.25;6249903;28;19921;-75
2024/03/09 04:20:15;;;;;;;26.88;14.77;;;;;;;6.38;100.00;100213.34;6248622;28;20046;-75
2024/03/09 04:23:16;;;;;;;32.35;14.90;;;;;;;6.37;100.00;100205.63;6249620;28;20452;-75
2024/03/09 04:26:17;;;;;;;29.63;14.32;;;;;;;6.36;100.00;100206.53;6248670;28;20050;-75
2024/03/09 04:29:18;;;;;;;32.08;15.65;;;;;;;6.33;100.00;100202.31;6248561;28;20133;-74
2024/03/09 04:32:19;;;;;;;36.47;15.00;;;;;;;6.36;100.00;100203.94;6249513;28;20049;-75
2024/03/09 04:35:20;;;;;;;29.38;14.32;;;;;;;6.35;100.00;100210.88;6248444;28;20041;-68
2024/03/09 04:38:21;;;;;;;27.85;14.43;;;;;;;6.38;100.00;100209.91;6248197;28;20533;-68
2024/03/09 04:41:22;;;;;;;29.95;15.50;;;;;;;6.42;100.00;100212.31;6248256;28;20057;-68
2024/03/09 04:44:23;;;;;;;28.42;15.38;;;;;;;6.44;100.00;100214.81;6248113;28;20049;-68
2024/03/09 04:47:24;;;;;;;30.88;14.40;;;;;;;6.43;100.00;100213.16;6249489;28;20052;-74
2024/03/09 04:50:28;;;;;;;31.88;15.52;;;;;;;6.45;100.00;100211.34;6247994;28;20132;-75
2024/03/09 04:53:29;;;;;;;33.83;15.20;;;;;;;6.43;100.00;100202.78;6248078;28;20067;-75
2024/03/09 04:56:30;;;;;;;29.50;13.85;;;;;;;6.43;100.00;100207.97;6248904;28;20414;-74
2024/03/09 04:59:31;;;;;;;30.25;13.95;;;;;;;6.50;100.00;100208.56;6248924;28;20053;-75
2024/03/09 05:02:32;;;;;;;31.17;14.75;;;;;;;6.45;100.00;100203.56;6248081;28;20797;-74
2024/03/09 05:05:38;;;;;;;33.40;14.32;;;;;;;6.48;100.00;100205.19;6247544;28;20136;-75
2024/03/09 05:08:44;;;;;;;29.00;13.32;;;;;;;6.43;100.00;100201.03;6248789;28;20049;-74
2024/03/09 05:11:45;;;;;;;31.08;14.73;;;;;;;6.44;100.00;100204.47;6248553;28;20060;-67
2024/03/09 05:14:48;;;;;;;31.27;15.27;;;;;;;6.48;100.00;100200.84;6247589;28;20068;-69
2024/03/09 05:17:51;;;;;;;36.80;16.17;;;;;;;6.51;100.00;100202.47;6248427;28;20052;-68
2024/03/09 05:20:52;;;;;;;32.15;14.88;;;;;;;6.51;100.00;100205.91;6248724;28;20405;-69
2024/03/09 05:23:53;;;;;;;28.35;15.45;;;;;;;6.53;100.00;100204.09;6247124;28;20053;-69
2024/03/09 05:26:53;;;;;;;32.63;14.52;;;;;;;6.56;100.00;100190.97;6248215;28;20052;-75
2024/03/09 05:29:55;;;;;;;29.15;13.98;;;;;;;6.62;100.00;100198.50;6247092;28;20547;-68
2024/03/09 05:33:06;;;;;;;26.13;12.15;;;;;;;6.64;100.00;100199.28;6246986;28;20095;-68
2024/03/09 05:36:08;;;;;;;26.30;13.57;;;;;;;6.69;100.00;100199.06;6248335;28;20064;-68
2024/03/09 05:39:13;;;;;;;32.10;13.52;;;;;;;6.73;100.00;100192.03;6247842;28;20076;-74
2024/03/09 05:42:14;;;;;;;23.27;12.07;;;;;;;6.80;100.00;100203.84;6248138;28;20056;-75
2024/03/09 05:45:18;;;;;;;25.02;12.18;;;;;;;6.80;100.00;100198.66;6247763;28;20136;-74
2024/03/09 05:48:18;;;;;;;27.85;12.70;;;;;;;6.75;100.00;100208.34;6247961;28;20053;-68
2024/03/09 05:51:19;;;;;;;26.77;13.38;;;;;;;6.86;100.00;100207.00;6246515;28;20131;-74
2024/03/09 05:54:23;;;;;;;29.67;14.05;;;;;;;6.88;100.00;100206.06;6246477;28;20052;-74
2024/03/09 05:57:27;;;;;;;26.70;12.25;;;;;;;6.92;100.00;100212.81;6247613;28;20056;-68
2024/03/09 06:00:29;;;;;;;30.60;13.23;;;;;;;7.03;100.00;100221.00;6247864;28;20143;-68
2024/03/09 06:03:30;;;;;;;28.73;13.73;;;;;;;7.06;100.00;100213.91;6247404;28;20099;-69
2024/03/09 06:06:31;;;;;;;23.95;13.85;;;;;;;7.14;100.00;100220.50;6246421;28;20053;-68
2024/03/09 06:09:32;;;;;;;25.05;11.88;;;;;;;7.16;100.00;100218.69;6247435;28;20050;-68
2024/03/09 06:12:33;;;;;;;28.92;12.93;;;;;;;7.27;100.00;100219.06;6247158;28;20053;-68
2024/03/09 06:15:34;;;;;;;29.33;13.20;;;;;;;7.35;100.00;100219.56;6245851;28;20042;-68
2024/03/09 06:18:35;;;;;;;27.58;14.18;;;;;;;7.46;100.00;100230.28;6247069;28;20345;-68
2024/03/09 06:21:36;;;;;;;26.42;14.00;;;;;;;7.55;100.00;100218.66;6246108;28;20509;-68
2024/03/09 06:24:37;;;;;;;27.10;12.27;;;;;;;7.60;100.00;100229.69;6245769;28;20057;-67
2024/03/09 06:27:40;;;;;;;23.10;12.93;;;;;;;7.70;100.00;100227.50;6247221;28;20493;-75
2024/03/09 06:30:41;;;;;;;24.33;12.50;;;;;;;7.54;100.00;100235.16;6245797;28;20105;-74
2024/03/09 06:33:42;;;;;;;24.50;13.63;;;;;;;7.57;100.00;100227.22;6246859;28;20049;-70
2024/03/09 06:36:46;;;;;;;30.92;12.63;;;;;;;7.74;100.00;100239.44;6245695;28;20045;-68
2024/03/09 06:39:47;;;;;;;24.00;12.60;;;;;;;7.73;100.00;100229.13;6246855;28;20057;-70
2024/03/09 06:42:50;;;;;;;23.88;12.80;;;;;;;7.85;100.00;100234.56;6245694;28;20493;-75
2024/03/09 06:45:51;;;;;;;27.38;13.77;;;;;;;7.93;100.00;100238.56;6246606;28;20099;-74
2024/03/09 06:48:52;;;;;;;25.30;12.35;;;;;;;7.97;100.00;100232.28;6246742;28;20092;-75
2024/03/09 06:51:53;;;;;;;24.55;11.77;;;;;;;7.98;100.00;100237.44;6246511;28;20053;-74
2024/03/09 06:54:54;;;;;;;22.83;12.27;;;;;;;8.19;100.00;100230.34;6245151;28;20146;-75
2024/03/09 06:57:56;;;;;;;19.77;11.25;;;;;;;8.34;100.00;100231.41;6245295;28;20631;-68
2024/03/09 07:00:57;;;;;;;21.60;11.38;;;;;;;8.48;100.00;100233.31;6246487;28;20425;-75
2024/03/09 07:04:03;;;;;;;19.10;11.18;;;;;;;8.49;100.00;100231.59;6245202;28;20056;-74
2024/03/09 07:07:04;;;;;;;18.15;10.30;;;;;;;8.59;100.00;100231.06;6246627;28;20076;-75
2024/03/09 07:10:12;;;;;;;19.48;10.82;;;;;;;8.75;100.00;100238.06;6245234;28;20053;-68
2024/03/09 07:13:12;;;;;;;23.75;12.57;;;;;;;8.79;100.00;100237.88;6246345;28;20594;-74
2024/03/09 07:16:15;;;;;;;17.70;10.20;;;;;;;8.84;100.00;100235.03;6245212;28;20046;-74
2024/03/09 07:19:16;;;;;;;20.67;11.55;;;;;;;8.80;100.00;100246.50;6246896;28;20053;-74
2024/03/09 07:22:17;;;;;;;21.65;10.20;;;;;;;8.81;100.00;100240.38;6246319;28;20421;-75
2024/03/09 07:25:23;;;;;;;19.90;11.38;;;;;;;8.88;100.00;100236.53;6246058;28;20042;-69
2024/03/09 07:28:25;;;;;;;19.88;10.70;;;;;;;8.86;100.00;100238.38;6247831;28;20081;-69
2024/03/09 07:31:27;;;;;;;19.75;10.77;;;;;;;8.86;100.00;100241.00;6250994;28;20103;-75
2024/03/09 07:34:28;;;;;;;20.15;11.20;;;;;;;8.91;100.00;100249.38;6251135;28;20136;-69
2024/03/09 07:37:29;;;;;;;22.60;12.73;;;;;;;8.93;100.00;100255.34;6251011;28;20052;-75
2024/03/09 07:40:31;;;;;;;21.95;12.85;;;;;;;8.79;100.00;100253.47;6249624;28;20389;-75
2024/03/09 07:43:32;;;;;;;20.70;12.52;;;;;;;9.02;100.00;100248.88;6250537;28;20119;-75
2024/03/09 07:46:35;;;;;;;17.10;10.10;;;;;;;9.05;100.00;100244.31;6249397;28;20563;-68
2024/03/09 07:49:37;;;;;;;23.08;11.90;;;;;;;9.11;100.00;100255.34;6250581;28;20404;-70
2024/03/09 07:52:38;;;;;;;18.95;11.85;;;;;;;9.10;100.00;100251.03;6250560;28;20080;-69
2024/03/09 07:55:39;;;;;;;15.75;9.38;;;;;;;8.86;100.00;100260.03;6249072;28;20412;-69
2024/03/09 07:58:39;;;;;;;18.45;10.68;;;;;;;8.92;100.00;100274.50;6249250;28;20049;-75
2024/03/09 08:01:41;;;;;;;20.30;11.85;;;;;;;9.14;100.00;100257.78;6249289;28;20436;-75
2024/03/09 08:04:42;;;;;;;18.63;10.73;;;;;;;9.10;100.00;100258.84;6248948;28;20056;-69
2024/03/09 08:07:46;;;;;;;18.75;11.25;;;;;;;9.20;100.00;100257.47;6249139;28;20081;-69
2024/03/09 08:10:47;;;;;;;20.90;10.95;;;;;;;9.09;100.00;100260.63;6250144;28;20060;-75
2024/03/09 08:13:50;;;;;;;17.05;10.60;;;;;;;9.28;100.00;100261.34;6248957;28;20053;-75
2024/03/09 08:16:51;;;;;;;16.55;9.95;;;;;;;9.39;100.00;100246.91;6248744;28;20046;-69
2024/03/09 08:19:52;;;;;;;17.67;10.65;;;;;;;9.60;100.00;100247.56;6250096;28;20053;-75
2024/03/09 08:22:54;;;;;;;18.83;9.60;;;;;;;9.66;100.00;100253.28;6248527;28;20049;-68
2024/03/09 08:25:58;;;;;;;19.48;10.18;;;;;;;9.78;100.00;100251.78;6248357;28;20041;-75
2024/03/09 08:28:59;;;;;;;18.02;9.68;;;;;;;9.79;100.00;100236.97;6248653;28;20140;-75
2024/03/09 08:32:05;;;;;;;13.35;9.55;;;;;;;9.80;100.00;100239.50;6249461;28;20132;-75
2024/03/09 08:35:09;;;;;;;15.25;9.00;;;;;;;10.26;99.81;100241.31;6249630;28;20391;-69
2024/03/09 08:38:13;;;;;;;15.98;8.98;;;;;;;10.37;96.98;100230.28;6249088;28;20056;-75
2024/03/09 08:41:14;;;;;;;14.05;8.35;;;;;;;10.68;92.48;100226.72;6249508;28;20058;-75
2024/03/09 08:44:19;;;;;;;16.58;9.93;;;;;;;10.99;91.66;100225.75;6249182;28;20049;-76
2024/03/09 08:47:19;;;;;;;17.65;10.30;;;;;;;11.21;89.87;100220.06;6249357;28;20046;-76
2024/03/09 08:50:22;;;;;;;15.23;9.48;;;;;;;11.51;87.72;100229.59;6249210;28;20049;-69
2024/03/09 08:53:25;;;;;;;17.60;8.85;;;;;;;11.41;84.61;100221.47;6264625;28;20068;-69
2024/03/09 08:56:27;;;;;;;13.20;7.50;;;;;;;11.71;82.22;100215.25;6248876;28;20057;-69
2024/03/09 08:59:28;;;;;;;10.82;7.32;;;;;;;11.18;80.87;100206.34;6248089;28;20060;-75
2024/03/09 09:02:30;;;;;;;10.80;7.68;;;;;;;10.85;82.95;100210.06;6247866;28;20053;-75
2024/03/09 09:05:31;;;;;;;17.07;8.63;;;;;;;10.87;84.32;100210.81;6247572;28;20053;-69
2024/03/09 09:08:36;;;;;;;13.13;8.05;;;;;;;11.25;83.32;100200.66;6248786;28;20394;-76
2024/03/09 09:11:37;;;;;;;12.40;7.53;;;;;;;11.57;81.27;100207.44;6248656;28;20387;-75
2024/03/09 09:14:39;;;;;;;15.60;8.53;;;;;;;11.76;81.26;100201.91;6247377;28;20663;-76
2024/03/09 09:17:42;;;;;;;11.80;7.90;;;;;;;11.81;79.00;100195.44;6248502;28;20041;-75
2024/03/09 09:20:48;;;;;;;15.95;8.68;;;;;;;12.15;78.16;100195.06;6247274;28;20571;-75
2024/03/09 09:23:49;;;;;;;16.70;8.20;;;;;;;12.75;77.47;100186.69;6248231;28;20382;-75
2024/03/09 09:26:50;;;;;;;14.70;8.77;;;;;;;12.88;74.64;100184.91;6248269;28;20068;-70
2024/03/09 09:29:51;;;;;;;16.42;8.75;;;;;;;12.39;72.55;100182.97;6248309;28;20049;-76
2024/03/09 09:32:52;;;;;;;13.70;8.75;;;;;;;12.00;74.79;100187.28;6247245;28;20500;-76
2024/03/09 09:35:53;;;;;;;14.82;8.77;;;;;;;11.92;75.88;100188.72;6248126;28;20140;-69
2024/03/09 09:38:54;;;;;;;12.73;8.50;;;;;;;12.16;74.66;100181.06;6248010;28;20049;-69
2024/03/09 09:41:57;;;;;;;13.15;7.60;;;;;;;12.45;72.59;100179.94;6246883;28;20417;-70
2024/03/09 09:44:58;;;;;;;12.10;7.53;;;;;;;12.83;70.36;100173.09;6247683;28;20061;-75
2024/03/09 09:48:01;;;;;;;12.23;7.00;;;;;;;12.75;70.30;100181.47;6246865;28;20140;-74
2024/03/09 09:51:08;;;;;;;12.15;7.20;;;;;;;13.89;67.58;100165.63;6278927;28;20049;-76
2024/03/09 09:54:10;;;;;;;12.25;7.47;;;;;;;13.91;67.96;100163.72;6247662;28;20112;-69
2024/03/09 09:57:11;;;;;;;14.65;8.20;;;;;;;13.53;64.62;100167.34;6247398;28;20382;-76
2024/03/09 10:00:14;;;;;;;13.27;8.35;;;;;;;14.03;65.40;100165.44;6279736;28;20049;-69
2024/03/09 10:03:14;;;;;;;;;;;;;;;14.47;63.39;100169.16;6246763;28;20045;-69
2024/03/09 10:06:23;;;;;;;12.13;6.95;;;;;;;14.51;61.36;100162.72;6246317;28;19921;-76
2024/03/09 10:09:30;;;;;;;18.50;9.57;;;;;;;14.91;62.04;100164.97;6247632;28;20096;-76
2024/03/09 10:12:31;;;;;;;10.25;6.97;;;;;;;14.82;57.68;100163.03;6247513;28;20046;-70
2024/03/09 10:15:35;;;;;;;11.38;6.93;;;;;;;14.85;58.68;100156.75;6247307;28;20128;-69
2024/03/09 10:18:40;;;;;;;11.43;6.97;;;;;;;15.07;56.47;100166.41;6247396;28;20056;-76
2024/03/09 10:21:41;;;;;;;12.43;7.47;;;;;;;14.70;59.23;100159.59;6279161;28;20049;-73
2024/03/09 10:24:53;;;;;;;11.20;6.63;;;;;;;15.32;60.79;100152.19;6246891;28;20413;-70
2024/03/09 10:28:00;;;;;;;11.15;6.78;;;;;;;15.63;58.88;100155.81;6245927;28;20053;-71
2024/03/09 10:31:07;;;;;;;12.20;7.03;;;;;;;14.60;59.63;100147.25;6246930;28;20079;-76
2024/03/09 10:34:08;;;;;;;14.27;8.38;;;;;;;14.17;60.40;100143.44;6246990;28;20058;-76
2024/03/09 10:37:17;;;;;;;10.53;6.80;;;;;;;14.10;61.80;100135.19;6245581;28;20409;-69
2024/03/09 10:40:20;;;;;;;11.00;6.32;;;;;;;13.19;60.97;100135.63;6246807;28;20541;-70
2024/03/09 10:43:22;;;;;;;9.30;6.45;;;;;;;13.32;60.16;100140.03;6246678;28;20425;-76
2024/03/09 10:46:32;;;;;;;8.52;5.18;;;;;;;14.97;56.04;100134.78;6246801;28;20045;-69
2024/03/09 10:49:34;;;;;;;6.82;4.20;;;;;;;15.57;52.77;100140.53;6262016;28;20199;-69
2024/03/09 10:52:40;;;;;;;5.78;3.95;;;;;;;14.43;51.02;100130.13;6245431;28;20469;-69
2024/03/09 10:55:56;;;;;;;10.07;6.45;;;;;;;14.00;52.95;100133.34;6278375;28;20057;-69
2024/03/09 10:59:00;;;;;;;7.45;4.80;;;;;;;13.48;53.61;100120.47;6246754;28;20187;-70
2024/03/09 11:02:02;;;;;;;10.70;5.25;;;;;;;13.72;54.19;100114.41;6248639;28;20053;-69
2024/03/09 11:05:05;;;;;;;8.35;5.25;;;;;;;13.70;54.02;100113.69;6251684;28;20332;-76
2024/03/09 11:08:09;;;;;;;5.75;4.55;;;;;;;13.52;54.34;100104.53;6251493;28;20140;-76
2024/03/09 11:11:13;;;;;;;11.50;5.00;;;;;;;13.29;54.37;100107.03;6283740;28;20099;-69
2024/03/09 11:14:22;;;;;;;5.28;4.20;;;;;;;13.50;52.92;100096.78;6251291;28;20437;-76
2024/03/09 11:17:32;;;;;;;9.10;5.15;;;;;;;14.43;53.73;100093.38;6251515;28;20417;-76
2024/03/09 11:20:34;;;;;;;7.32;4.55;;;;;;;14.76;51.98;100083.88;6251339;28;20057;-76
2024/03/09 11:23:35;;;;;;;7.32;4.70;;;;;;;15.26;50.35;100087.78;6251446;28;20137;-76
2024/03/09 11:26:52;;;;;;;5.22;3.47;;;;;;;16.01;46.98;100087.91;6251031;28;20052;-75
2024/03/09 11:29:54;;;;;;;5.13;3.50;;;;;;;16.27;45.70;100072.56;6283266;28;20092;-75
2024/03/09 11:32:55;;;;;;;5.72;3.47;;;;;;;16.64;45.70;100077.31;6250982;28;20049;-76
2024/03/09 11:35:57;;;;;;;4.88;3.50;;;;;;;16.69;44.89;100072.47;6250862;28;20152;-75
2024/03/09 11:39:02;;;;;;;6.20;4.03;;;;;;;16.36;44.12;100073.56;6249743;28;20528;-69
2024/03/09 11:42:12;;;;;;;7.32;4.35;;;;;;;16.46;46.09;100070.00;6251048;28;20103;-70
2024/03/09 11:45:14;;;;;;;5.90;3.80;;;;;;;16.95;45.98;100064.16;6250650;28;20144;-75
2024/03/09 11:48:16;;;;;;;5.57;3.60;;;;;;;16.41;45.53;100056.44;6249677;28;20049;-76
2024/03/09 11:51:17;;;;;;;4.80;3.58;;;;;;;15.74;45.55;100060.28;6250692;28;20060;-75
2024/03/09 11:54:19;;;;;;;4.95;3.42;;;;;;;14.93;46.56;100056.28;6249100;28;20049;-75
2024/03/09 11:57:25;;;;;;;6.03;4.03;;;;;;;14.95;46.41;100059.63;6250546;28;20041;-75
2024/03/09 12:00:27;;;;;;;7.70;4.00;;;;;;;15.76;47.65;100057.53;6250339;28;20136;-75
2024/03/09 12:03:30;;;;;;;;;;;;;;;15.06;47.03;100044.69;6249765;28;20045;-75
2024/03/09 12:06:33;;;;;;;5.90;3.60;;;;;;;14.67;46.84;100051.31;6250186;28;19928;-75
2024/03/09 12:09:34;;;;;;;5.65;3.88;;;;;;;14.63;47.91;100044.63;6249260;28;20060;-69
2024/03/09 12:12:37;;;;;;;8.50;4.00;;;;;;;14.11;48.48;100045.03;6281692;28;20054;-75
2024/03/09 12:15:39;;;;;;;6.30;3.58;;;;;;;14.34;49.56;100037.19;6249985;28;20048;-70
2024/03/09 12:18:42;;;;;;;7.55;4.68;;;;;;;14.35;47.77;100044.13;6249952;28;20525;-69
2024/03/09 12:21:44;;;;;;;13.10;5.30;;;;;;;14.65;47.72;100038.28;6250163;28;20061;-75
2024/03/09 12:24:46;;;;;;;6.18;3.75;;;;;;;15.58;45.73;100037.00;6248785;28;20096;-75
2024/03/09 12:27:50;;;;;;;6.25;3.70;;;;;;;16.18;45.29;100024.13;6249610;28;20045;-75
2024/03/09 12:30:51;;;;;;;7.97;3.67;;;;;;;16.11;44.12;100023.81;6249900;28;20580;-70
2024/03/09 12:33:54;;;;;;;6.15;3.70;;;;;;;16.02;42.67;100018.50;6248428;28;20417;-69
2024/03/09 12:36:57;;;;;;;5.45;3.33;;;;;;;15.94;43.81;100021.78;6249642;28;20049;-75
2024/03/09 12:40:19;;;;;;;6.18;3.83;;;;;;;15.50;44.83;100026.28;6248295;28;20084;-75
2024/03/09 12:43:23;;;;;;;4.97;3.72;;;;;;;15.47;45.01;100030.00;6249549;28;20056;-69
2024/03/09 12:46:28;;;;;;;7.68;3.85;;;;;;;15.32;44.94;100016.31;6247901;28;20056;-69
2024/03/09 12:49:33;;;;;;;5.70;3.60;;;;;;;15.04;46.02;100015.06;6249477;28;20049;-75
2024/03/09 12:52:34;;;;;;;5.88;4.07;;;;;;;15.02;46.29;100010.91;6249184;28;20057;-75
2024/03/09 12:55:35;;;;;;;5.82;3.45;;;;;;;14.93;45.77;100015.13;6248905;28;20049;-75
2024/03/09 12:58:36;;;;;;;5.27;3.63;;;;;;;14.46;46.35;100009.16;6247770;28;20199;-75
2024/03/09 13:01:38;;;;;;;7.78;4.03;;;;;;;14.87;45.48;100005.91;6249189;28;20056;-75
2024/03/09 13:04:39;;;;;;;5.63;3.30;;;;;;;15.26;45.32;100008.09;6248942;28;20061;-76
2024/03/09 13:07:40;;;;;;;5.80;3.63;;;;;;;15.45;44.16;100005.63;6248957;28;20052;-69
2024/03/09 13:10:45;;;;;;;5.70;3.50;;;;;;;15.32;44.97;100008.44;6247559;28;20468;-69
2024/03/09 13:13:49;;;;;;;5.30;3.33;;;;;;;15.34;44.14;100002.19;6249199;28;20057;-75
2024/03/09 13:16:50;;;;;;;7.13;3.42;;;;;;;14.99;43.38;100003.25;6248727;28;20125;-75
2024/03/09 13:19:53;;;;;;;7.40;3.80;;;;;;;14.86;43.34;99988.47;6247309;28;20144;-76
2024/03/09 13:22:54;;;;;;;7.05;3.60;;;;;;;14.63;44.05;99990.31;6247264;28;20481;-69
2024/03/09 13:25:55;;;;;;;4.88;3.45;;;;;;;15.16;45.31;99992.22;6246027;28;20171;-69
2024/03/09 13:29:00;;;;;;;7.07;3.08;;;;;;;15.54;44.74;99995.31;6248235;28;20056;-70
2024/03/09 13:32:02;;;;;;;5.05;3.85;;;;;;;15.52;43.50;99985.78;6248152;28;20107;-69
2024/03/09 13:35:06;;;;;;;5.70;3.10;;;;;;;15.98;44.46;99986.38;6247170;28;20045;-69
2024/03/09 13:38:08;;;;;;;5.00;3.22;;;;;;;15.86;43.58;99995.28;6248048;28;20325;-69
2024/03/09 13:41:10;;;;;;;9.02;4.00;;;;;;;16.15;43.09;99987.56;6248218;28;20139;-75
2024/03/09 13:44:12;;;;;;;6.45;4.18;;;;;;;15.83;42.85;99977.13;6247880;28;20057;-75
2024/03/09 13:47:14;;;;;;;6.65;4.18;;;;;;;15.05;44.03;99981.75;6246808;28;20045;-75
2024/03/09 13:50:21;;;;;;;6.13;3.50;;;;;;;14.91;44.09;99977.63;6247782;28;20532;-70
2024/03/09 13:53:21;;;;;;;9.48;5.95;;;;;;;14.60;44.19;99981.84;6246567;28;20416;-69
2024/03/09 13:56:28;;;;;;;6.95;3.63;;;;;;;14.19;45.58;99970.97;6246333;28;20493;-69
2024/03/09 13:59:29;;;;;;;7.30;3.78;;;;;;;14.40;45.62;99975.50;6247522;28;20060;-69